createdAt,value
2022-08-03T00:00:45.731Z,26.19
2022-08-03T00:03:17.860Z,26.21
2022-08-03T00:06:04.176Z,26.17
2022-08-03T00:08:34.386Z,26.16
2022-08-03T00:11:09.738Z,26.12
2022-08-03T00:13:39.290Z,26.10
2022-08-03T00:16:08.877Z,26.08
2022-08-03T00:18:40.914Z,26.06
2022-08-03T00:21:10.360Z,26.00
2022-08-03T00:23:52.162Z,25.95
2022-08-03T00:26:22.398Z,25.90
2022-08-03T00:28:52.088Z,25.85
2022-08-03T00:31:39.720Z,25.79
2022-08-03T00:34:13.566Z,25.76
2022-08-03T00:36:43.045Z,25.77
2022-08-03T00:39:12.484Z,25.73
2022-08-03T00:41:41.958Z,25.74
2022-08-03T00:44:11.398Z,25.66
2022-08-03T00:46:40.952Z,25.61
2022-08-03T00:49:13.084Z,25.57
2022-08-03T00:51:42.546Z,25.52
2022-08-03T00:54:12.556Z,25.49
2022-08-03T00:56:59.902Z,25.44
2022-08-03T00:59:30.148Z,25.40
2022-08-03T01:01:59.707Z,25.37
2022-08-03T01:04:31.810Z,25.38
2022-08-03T01:07:05.889Z,25.33
2022-08-03T01:09:47.504Z,25.30
2022-08-03T01:12:19.038Z,25.22
2022-08-03T01:14:52.040Z,25.17
2022-08-03T01:17:23.159Z,25.13
2022-08-03T01:19:57.115Z,25.10
2022-08-03T01:22:43.338Z,25.07
2022-08-03T01:25:16.915Z,25.04
2022-08-03T01:27:52.716Z,25.00
2022-08-03T01:30:24.745Z,25.02
2022-08-03T01:33:01.864Z,24.96
2022-08-03T01:35:38.334Z,24.92
2022-08-03T01:38:10.280Z,24.89
2022-08-03T01:40:39.758Z,24.88
2022-08-03T01:43:09.478Z,24.81
2022-08-03T01:45:41.545Z,24.82
2022-08-03T01:48:10.995Z,24.81
2022-08-03T01:50:40.460Z,24.81
2022-08-03T01:53:10.090Z,24.75
2022-08-03T01:58:08.770Z,24.66
2022-08-03T02:00:40.905Z,24.62
2022-08-03T02:03:10.681Z,24.56
2022-08-03T02:05:40.111Z,24.56
2022-08-03T02:08:10.462Z,24.53
2022-08-03T02:10:39.936Z,24.48
2022-08-03T02:13:10.067Z,24.49
2022-08-03T02:15:42.181Z,24.47
2022-08-03T02:18:12.738Z,24.46
2022-08-03T02:20:42.222Z,24.43
2022-08-03T02:23:11.705Z,24.44
2022-08-03T02:25:47.402Z,24.41
2022-08-03T02:28:19.418Z,24.30
2022-08-03T02:30:55.427Z,24.24
2022-08-03T02:33:28.235Z,24.18
2022-08-03T02:35:57.680Z,24.17
2022-08-03T02:38:30.078Z,24.16
2022-08-03T02:40:59.560Z,24.15
2022-08-03T02:43:29.048Z,24.13
2022-08-03T02:46:21.428Z,24.12
2022-08-03T02:48:52.163Z,24.13
2022-08-03T02:51:21.911Z,24.08
2022-08-03T02:53:51.534Z,23.99
2022-08-03T02:56:20.981Z,23.95
2022-08-03T02:58:50.429Z,23.93
2022-08-03T03:01:22.846Z,23.93
2022-08-03T03:03:53.502Z,23.92
2022-08-03T03:06:23.014Z,23.91
2022-08-03T03:08:59.455Z,23.91
2022-08-03T03:11:29.241Z,23.89
2022-08-03T03:13:58.730Z,23.91
2022-08-03T03:16:31.133Z,23.91
2022-08-03T03:19:00.579Z,23.86
2022-08-03T03:21:30.027Z,23.80
2022-08-03T03:23:59.467Z,23.74
2022-08-03T03:26:28.921Z,23.71
2022-08-03T03:28:58.680Z,23.67
2022-08-03T03:31:30.723Z,23.66
2022-08-03T03:34:00.652Z,23.66
2022-08-03T03:36:30.292Z,23.61
2022-08-03T03:38:59.998Z,23.57
2022-08-03T03:41:45.542Z,23.56
2022-08-03T03:44:15.118Z,23.54
2022-08-03T03:46:47.142Z,23.54
2022-08-03T03:49:18.777Z,23.52
2022-08-03T03:51:48.263Z,23.48
2022-08-03T03:54:17.697Z,23.50
2022-08-03T03:56:47.174Z,23.49
2022-08-03T03:59:16.615Z,23.46
2022-08-03T04:01:48.683Z,23.46
2022-08-03T04:04:41.294Z,23.44
2022-08-03T04:07:23.243Z,23.46
2022-08-03T04:10:14.088Z,23.43
2022-08-03T04:12:49.966Z,23.40
2022-08-03T04:15:20.551Z,23.40
2022-08-03T04:17:52.939Z,23.37
2022-08-03T04:20:22.927Z,23.41
2022-08-03T04:22:52.588Z,23.40
2022-08-03T04:25:22.013Z,23.40
2022-08-03T04:28:07.627Z,23.37
2022-08-03T04:30:47.543Z,23.42
2022-08-03T04:33:19.819Z,23.46
2022-08-03T04:35:54.749Z,23.45
2022-08-03T04:38:32.640Z,23.42
2022-08-03T04:41:02.221Z,23.46
2022-08-03T04:43:31.699Z,23.54
2022-08-03T04:46:01.129Z,23.53
2022-08-03T04:48:33.159Z,23.56
2022-08-03T04:51:04.505Z,23.50
2022-08-03T04:53:33.999Z,23.48
2022-08-03T04:56:07.148Z,23.57
2022-08-03T04:58:36.652Z,23.66
2022-08-03T05:01:06.167Z,23.73
2022-08-03T05:03:38.205Z,23.78
2022-08-03T05:06:11.043Z,23.80
2022-08-03T05:08:46.395Z,23.86
2022-08-03T05:11:17.083Z,23.78
2022-08-03T05:13:46.635Z,23.58
2022-08-03T05:16:16.502Z,23.62
2022-08-03T05:18:48.732Z,23.50
2022-08-03T05:21:18.202Z,23.82
2022-08-03T05:23:47.722Z,23.87
2022-08-03T05:26:17.193Z,23.84
2022-08-03T05:28:50.611Z,24.00
2022-08-03T05:31:21.167Z,24.22
2022-08-03T05:33:53.203Z,24.35
2022-08-03T05:36:22.805Z,24.53
2022-08-03T05:38:52.297Z,24.59
2022-08-03T05:41:36.427Z,24.65
2022-08-03T05:44:07.299Z,24.86
2022-08-03T05:46:36.753Z,24.92
2022-08-03T05:49:08.857Z,25.10
2022-08-03T05:51:38.382Z,25.23
2022-08-03T05:54:07.878Z,25.36
2022-08-03T05:56:37.317Z,25.53
2022-08-03T05:59:28.739Z,25.74
2022-08-03T06:01:56.282Z,25.89
2022-08-03T06:04:28.380Z,26.03
2022-08-03T06:06:58.548Z,26.05
2022-08-03T06:09:56.527Z,26.11
2022-08-03T06:12:17.843Z,26.28
2022-08-03T06:14:47.439Z,26.47
2022-08-03T06:17:16.935Z,26.47
2022-08-03T06:19:48.962Z,26.33
2022-08-03T06:22:18.604Z,26.46
2022-08-03T06:24:53.499Z,26.57
2022-08-03T06:27:36.416Z,26.73
2022-08-03T06:30:07.776Z,26.88
2022-08-03T06:32:37.280Z,27.08
2022-08-03T06:35:10.005Z,27.12
2022-08-03T06:37:48.826Z,27.29
2022-08-03T06:40:21.905Z,27.48
2022-08-03T06:42:54.111Z,27.54
2022-08-03T06:45:23.821Z,27.71
2022-08-03T06:48:02.956Z,27.77
2022-08-03T06:50:35.074Z,27.84
2022-08-03T06:53:04.656Z,27.85
2022-08-03T06:55:34.175Z,27.97
2022-08-03T06:58:11.736Z,28.02
2022-08-03T07:00:41.166Z,28.26
2022-08-03T07:03:10.615Z,28.41
2022-08-03T07:05:42.778Z,28.49
2022-08-03T07:08:12.260Z,28.65
2022-08-03T07:10:41.704Z,28.76
2022-08-03T07:13:11.143Z,28.70
2022-08-03T07:15:55.828Z,28.63
2022-08-03T07:18:29.947Z,28.95
2022-08-03T07:21:02.254Z,29.14
2022-08-03T07:23:31.724Z,29.38
2022-08-03T07:26:01.206Z,29.45
2022-08-03T07:28:30.731Z,29.57
2022-08-03T07:31:00.195Z,29.59
2022-08-03T07:33:29.691Z,29.88
2022-08-03T07:36:01.861Z,30.01
2022-08-03T07:38:31.557Z,30.24
2022-08-03T07:41:00.986Z,30.13
2022-08-03T07:43:30.507Z,30.39
2022-08-03T07:45:59.989Z,30.32
2022-08-03T07:48:29.454Z,30.44
2022-08-03T07:50:58.904Z,30.70
2022-08-03T07:53:30.960Z,30.88
2022-08-03T07:56:00.443Z,31.05
2022-08-03T07:58:30.803Z,30.95
2022-08-03T08:01:00.302Z,30.73
2022-08-03T08:03:29.806Z,30.81
2022-08-03T08:06:19.368Z,31.38
2022-08-03T08:08:51.530Z,31.69
2022-08-03T08:11:22.294Z,32.00
2022-08-03T08:13:51.522Z,31.99
2022-08-03T08:16:20.974Z,31.84
2022-08-03T08:18:50.408Z,31.67
2022-08-03T08:21:19.871Z,31.56
2022-08-03T08:23:56.946Z,32.10
2022-08-03T08:26:26.695Z,32.24
2022-08-03T08:28:56.180Z,32.44
2022-08-03T08:31:25.642Z,32.69
2022-08-03T08:34:04.925Z,33.05
2022-08-03T08:36:35.360Z,33.31
2022-08-03T08:39:07.383Z,33.37
2022-08-03T08:41:36.820Z,33.07
2022-08-03T08:44:08.229Z,33.25
2022-08-03T08:46:37.683Z,33.33
2022-08-03T08:49:07.131Z,33.79
2022-08-03T08:51:59.095Z,33.73
2022-08-03T08:54:29.617Z,34.13
2022-08-03T08:56:59.392Z,34.36
2022-08-03T08:59:47.745Z,34.35
2022-08-03T09:02:18.384Z,33.85
2022-08-03T09:04:48.890Z,34.02
2022-08-03T09:07:29.145Z,34.28
2022-08-03T09:10:11.058Z,34.76
2022-08-03T09:12:43.174Z,35.03
2022-08-03T09:15:23.957Z,35.37
2022-08-03T09:17:53.624Z,35.97
2022-08-03T09:20:23.555Z,36.57
2022-08-03T09:23:01.287Z,37.19
2022-08-03T09:25:34.579Z,37.95
2022-08-03T09:28:11.122Z,38.91
2022-08-03T09:30:41.224Z,39.98
2022-08-03T09:33:11.633Z,41.75
2022-08-03T09:35:53.539Z,43.21
2022-08-03T09:38:26.258Z,44.97
2022-08-03T09:41:00.914Z,45.95
2022-08-03T09:43:30.683Z,46.78
2022-08-03T09:46:05.555Z,47.97
2022-08-03T09:48:36.840Z,49.06
2022-08-03T09:51:13.694Z,50.04
2022-08-03T09:54:00.512Z,51.02
2022-08-03T09:56:43.750Z,51.52
2022-08-03T09:59:13.588Z,50.58
2022-08-03T10:01:44.342Z,50.11
2022-08-03T10:04:17.632Z,51.50
2022-08-03T10:06:47.497Z,52.13
2022-08-03T10:09:17.843Z,53.21
2022-08-03T10:11:50.237Z,54.60
2022-08-03T10:14:22.622Z,53.42
2022-08-03T10:16:52.365Z,53.45
2022-08-03T10:19:21.830Z,54.32
2022-08-03T10:21:56.195Z,54.27
2022-08-03T10:24:27.924Z,52.97
2022-08-03T10:27:06.029Z,52.46
2022-08-03T10:29:39.789Z,53.88
2022-08-03T10:32:14.631Z,55.12
2022-08-03T10:34:45.006Z,55.10
2022-08-03T10:37:14.859Z,54.58
2022-08-03T10:39:53.549Z,53.34
2022-08-03T10:42:27.261Z,50.90
2022-08-03T10:45:07.423Z,50.76
2022-08-03T10:47:37.471Z,49.69
2022-08-03T10:50:07.860Z,47.72
2022-08-03T10:52:41.280Z,45.35
2022-08-03T10:55:44.788Z,43.31
2022-08-03T10:58:30.425Z,42.40
2022-08-03T11:01:00.530Z,41.70
2022-08-03T11:03:30.030Z,41.33
2022-08-03T11:06:19.034Z,40.49
2022-08-03T11:08:48.834Z,40.35
2022-08-03T11:11:31.323Z,39.90
2022-08-03T11:14:05.483Z,38.95
2022-08-03T11:16:37.091Z,38.86
2022-08-03T11:19:07.467Z,38.95
2022-08-03T11:21:55.696Z,38.44
2022-08-03T11:24:57.589Z,38.45
2022-08-03T11:27:27.471Z,38.44
2022-08-03T11:30:01.110Z,38.30
2022-08-03T11:32:56.264Z,38.49
2022-08-03T11:35:26.411Z,38.75
2022-08-03T11:38:08.656Z,38.65
2022-08-03T11:40:39.524Z,38.43
2022-08-03T11:43:09.867Z,38.62
2022-08-03T11:45:41.727Z,38.75
2022-08-03T11:48:17.383Z,38.67
2022-08-03T11:50:47.908Z,37.88
2022-08-03T11:53:18.741Z,38.00
2022-08-03T11:55:49.025Z,38.11
2022-08-03T11:59:19.544Z,38.31
2022-08-03T12:01:21.211Z,37.50
2022-08-03T12:03:52.605Z,37.34
2022-08-03T12:06:23.890Z,37.37
2022-08-03T12:08:53.315Z,37.88
2022-08-03T12:11:22.761Z,38.20
2022-08-03T12:14:44.868Z,38.18
2022-08-03T12:16:44.749Z,37.78
2022-08-03T12:19:14.195Z,37.87
2022-08-03T12:21:56.560Z,37.97
2022-08-03T12:24:29.529Z,37.43
2022-08-03T12:26:59.991Z,37.41
2022-08-03T12:29:29.894Z,37.12
2022-08-03T12:32:02.284Z,37.65
2022-08-03T12:34:49.415Z,38.00
2022-08-03T12:37:23.384Z,38.18
2022-08-03T12:40:01.329Z,38.56
2022-08-03T12:42:35.686Z,38.91
2022-08-03T12:45:23.300Z,39.12
2022-08-03T12:47:56.415Z,38.84
2022-08-03T12:50:32.289Z,37.58
2022-08-03T12:53:01.986Z,37.44
2022-08-03T12:55:56.734Z,37.93
2022-08-03T12:58:33.658Z,38.37
2022-08-03T13:01:05.121Z,38.65
2022-08-03T13:03:49.915Z,38.81
2022-08-03T13:06:23.358Z,38.62
2022-08-03T13:08:52.930Z,38.28
2022-08-03T13:11:50.532Z,38.16
2022-08-03T13:14:19.431Z,37.70
2022-08-03T13:16:49.929Z,37.78
2022-08-03T13:19:21.998Z,37.35
2022-08-03T13:21:53.476Z,37.25
2022-08-03T13:24:33.273Z,36.90
2022-08-03T13:28:00.041Z,36.68
2022-08-03T13:29:52.997Z,37.03
2022-08-03T13:32:22.774Z,37.07
2022-08-03T13:34:54.823Z,36.64
2022-08-03T13:37:24.612Z,36.84
2022-08-03T13:39:59.501Z,37.42
2022-08-03T13:42:31.376Z,37.95
2022-08-03T13:45:00.895Z,38.19
2022-08-03T13:47:30.489Z,37.68
2022-08-03T13:50:03.254Z,37.91
2022-08-03T13:52:34.129Z,37.75
2022-08-03T13:55:03.743Z,37.87
2022-08-03T13:58:02.918Z,38.45
2022-08-03T14:00:27.513Z,38.90
2022-08-03T14:03:07.963Z,39.07
2022-08-03T14:05:45.083Z,37.91
2022-08-03T14:08:14.703Z,37.24
2022-08-03T14:10:45.161Z,37.04
2022-08-03T14:13:16.863Z,37.28
2022-08-03T14:15:50.195Z,36.83
2022-08-03T14:18:27.839Z,36.61
2022-08-03T14:21:05.915Z,36.67
2022-08-03T14:23:36.173Z,36.38
2022-08-03T14:26:05.670Z,36.27
2022-08-03T14:28:35.171Z,37.00
2022-08-03T14:31:08.353Z,37.62
2022-08-03T14:33:45.117Z,37.31
2022-08-03T14:36:17.147Z,36.96
2022-08-03T14:38:46.717Z,36.77
2022-08-03T14:41:20.258Z,36.77
2022-08-03T14:44:02.174Z,36.83
2022-08-03T14:46:32.544Z,36.82
2022-08-03T14:50:34.713Z,37.09
2022-08-03T14:51:54.204Z,37.33
2022-08-03T14:54:24.367Z,37.73
2022-08-03T14:56:53.862Z,38.18
2022-08-03T14:59:23.320Z,37.92
2022-08-03T15:02:05.168Z,37.62
2022-08-03T15:04:37.175Z,37.99
2022-08-03T15:07:09.271Z,37.62
2022-08-03T15:09:38.754Z,37.04
2022-08-03T15:12:08.755Z,36.67
2022-08-03T15:14:38.195Z,37.08
2022-08-03T15:17:08.225Z,37.52
2022-08-03T15:20:02.117Z,38.02
2022-08-03T15:22:34.936Z,37.78
2022-08-03T15:26:32.120Z,37.27
2022-08-03T15:28:03.593Z,37.39
2022-08-03T15:30:37.041Z,37.73
2022-08-03T15:33:06.643Z,37.88
2022-08-03T15:35:38.918Z,37.58
2022-08-03T15:38:10.977Z,37.47
2022-08-03T15:40:40.420Z,37.37
2022-08-03T15:43:09.917Z,37.34
2022-08-03T15:45:42.111Z,37.11
2022-08-03T15:48:11.690Z,36.92
2022-08-03T15:50:41.270Z,36.99
2022-08-03T15:53:15.787Z,37.20
2022-08-03T15:55:45.293Z,36.94
2022-08-03T15:59:10.751Z,36.69
2022-08-03T16:01:04.867Z,36.53
2022-08-03T16:03:34.698Z,36.55
2022-08-03T16:06:04.824Z,36.67
2022-08-03T16:08:36.809Z,36.57
2022-08-03T16:11:06.241Z,36.81
2022-08-03T16:14:12.448Z,36.94
2022-08-03T16:16:25.196Z,36.76
2022-08-03T16:18:54.667Z,36.56
2022-08-03T16:21:24.131Z,36.37
2022-08-03T16:24:01.956Z,36.38
2022-08-03T16:26:32.369Z,36.29
2022-08-03T16:29:04.541Z,36.45
2022-08-03T16:31:52.515Z,36.36
2022-08-03T16:34:21.970Z,36.26
2022-08-03T16:36:51.457Z,36.21
2022-08-03T16:39:23.613Z,36.28
2022-08-03T16:41:53.813Z,36.69
2022-08-03T16:44:30.755Z,36.73
2022-08-03T16:47:00.223Z,36.98
2022-08-03T16:49:53.989Z,37.07
2022-08-03T16:52:19.229Z,36.47
2022-08-03T16:54:53.224Z,36.17
2022-08-03T16:57:56.732Z,36.05
2022-08-03T17:00:32.958Z,36.13
2022-08-03T17:03:16.377Z,36.00
2022-08-03T17:05:50.964Z,36.34
2022-08-03T17:08:26.603Z,36.41
2022-08-03T17:10:59.428Z,36.39
2022-08-03T17:13:39.101Z,36.31
2022-08-03T17:16:08.941Z,36.51
2022-08-03T17:18:42.244Z,36.70
2022-08-03T17:21:17.054Z,36.77
2022-08-03T17:23:48.294Z,36.79
2022-08-03T17:26:21.906Z,36.92
2022-08-03T17:28:57.348Z,36.50
2022-08-03T17:31:31.356Z,36.13
2022-08-03T17:34:04.329Z,35.83
2022-08-03T17:37:02.034Z,35.93
2022-08-03T17:39:48.517Z,35.93
2022-08-03T17:42:29.490Z,35.95
2022-08-03T17:45:02.403Z,36.01
2022-08-03T17:47:41.935Z,36.16
2022-08-03T17:50:24.341Z,36.26
2022-08-03T17:53:00.831Z,36.36
2022-08-03T17:55:55.831Z,36.43
2022-08-03T17:58:26.482Z,36.38
2022-08-03T18:01:59.545Z,36.28
2022-08-03T18:03:59.925Z,36.17
2022-08-03T18:06:31.137Z,36.17
2022-08-03T18:09:05.139Z,36.19
2022-08-03T18:11:51.743Z,36.15
2022-08-03T18:14:28.892Z,36.23
2022-08-03T18:17:01.484Z,36.28
2022-08-03T18:20:02.837Z,36.23
2022-08-03T18:22:25.276Z,36.14
2022-08-03T18:24:55.853Z,36.10
2022-08-03T18:27:45.436Z,35.98
2022-08-03T18:30:18.105Z,35.83
2022-08-03T18:33:01.107Z,35.75
2022-08-03T18:35:53.542Z,35.66
2022-08-03T18:38:23.795Z,35.53
2022-08-03T18:40:53.589Z,35.45
2022-08-03T18:43:46.260Z,35.33
2022-08-03T18:46:25.810Z,35.22
2022-08-03T18:48:57.292Z,35.11
2022-08-03T18:51:33.771Z,35.00
2022-08-03T18:54:06.477Z,34.90
2022-08-03T18:56:42.549Z,34.82
2022-08-03T18:59:13.381Z,34.73
2022-08-03T19:01:58.235Z,34.66
2022-08-03T19:04:34.071Z,34.57
2022-08-03T19:07:07.945Z,34.47
2022-08-03T19:09:40.701Z,34.42
2022-08-03T19:12:27.284Z,34.39
2022-08-03T19:15:03.836Z,34.31
2022-08-03T19:17:38.717Z,34.24
2022-08-03T19:20:10.378Z,34.22
2022-08-03T19:22:40.311Z,34.15
2022-08-03T19:25:15.397Z,34.11
2022-08-03T19:27:44.844Z,34.03
2022-08-03T19:30:34.889Z,33.99
2022-08-03T19:33:07.277Z,33.94
2022-08-03T19:35:51.429Z,33.85
2022-08-03T19:38:28.780Z,33.71
2022-08-03T19:41:00.152Z,33.63
2022-08-03T19:43:32.947Z,33.58
2022-08-03T19:46:06.301Z,33.54
2022-08-03T19:48:39.295Z,33.53
2022-08-03T19:51:12.709Z,33.52
2022-08-03T19:53:44.900Z,33.50
2022-08-03T19:56:14.710Z,33.44
2022-08-03T19:58:45.367Z,33.39
2022-08-03T20:01:22.815Z,33.36
2022-08-03T20:03:55.222Z,33.28
2022-08-03T20:06:25.702Z,33.20
2022-08-03T20:08:55.201Z,33.19
2022-08-03T20:11:28.818Z,33.20
2022-08-03T20:13:58.448Z,33.17
2022-08-03T20:16:27.909Z,33.17
2022-08-03T20:18:59.970Z,33.18
2022-08-03T20:21:30.011Z,33.17
2022-08-03T20:24:23.266Z,33.16
2022-08-03T20:26:52.501Z,33.11
2022-08-03T20:29:23.831Z,33.05
2022-08-03T20:32:12.484Z,33.03
2022-08-03T20:34:44.635Z,33.00
2022-08-03T20:37:18.895Z,32.93
2022-08-03T20:39:49.565Z,32.77
2022-08-03T20:42:21.683Z,32.73
2022-08-03T20:45:05.128Z,32.59
2022-08-03T20:47:41.646Z,32.62
2022-08-03T20:50:23.136Z,32.62
2022-08-03T20:52:52.613Z,32.62
2022-08-03T20:55:47.852Z,32.52
2022-08-03T20:58:11.850Z,32.50
2022-08-03T21:00:41.703Z,32.31
2022-08-03T21:03:12.786Z,32.31
2022-08-03T21:05:51.122Z,32.35
2022-08-03T21:08:21.225Z,32.33
2022-08-03T21:10:51.785Z,32.24
2022-08-03T21:13:24.777Z,32.14
2022-08-03T21:16:02.934Z,32.06
2022-08-03T21:18:46.262Z,31.99
2022-08-03T21:21:19.534Z,31.89
2022-08-03T21:23:52.682Z,31.84
2022-08-03T21:26:22.920Z,31.80
2022-08-03T21:28:53.187Z,31.73
2022-08-03T21:31:25.296Z,31.67
2022-08-03T21:33:56.663Z,31.59
2022-08-03T21:36:28.757Z,31.45
2022-08-03T21:38:58.737Z,31.42
2022-08-03T21:41:28.908Z,31.36
2022-08-03T21:43:58.428Z,31.35
2022-08-03T21:46:28.057Z,31.31
2022-08-03T21:50:04.980Z,31.27
2022-08-03T21:51:51.070Z,31.15
2022-08-03T21:54:21.069Z,31.11
2022-08-03T21:56:51.205Z,31.04
2022-08-03T21:59:21.495Z,31.01
2022-08-03T22:01:55.142Z,30.97
2022-08-03T22:04:42.679Z,30.92
2022-08-03T22:07:20.669Z,30.90
2022-08-03T22:09:52.180Z,30.86
2022-08-03T22:12:24.409Z,30.86
2022-08-03T22:15:01.099Z,30.85
2022-08-03T22:17:55.487Z,30.83
2022-08-03T22:20:21.585Z,30.72
2022-08-03T22:22:57.029Z,30.67
2022-08-03T22:25:30.585Z,30.71
2022-08-03T22:28:00.824Z,30.72
2022-08-03T22:30:31.682Z,30.63
2022-08-03T22:33:01.401Z,30.55
2022-08-03T22:35:30.857Z,30.47
2022-08-03T22:38:02.896Z,30.41
2022-08-03T22:40:32.378Z,30.37
2022-08-03T22:43:03.423Z,30.35
2022-08-03T22:46:07.428Z,30.27
2022-08-03T22:48:23.095Z,30.22
2022-08-03T22:50:52.535Z,30.19
2022-08-03T22:53:24.744Z,30.14
2022-08-03T22:55:54.422Z,30.08
2022-08-03T22:58:23.891Z,30.02
2022-08-03T23:00:55.933Z,29.99
2022-08-03T23:03:58.889Z,30.01
2022-08-03T23:06:16.741Z,29.99
2022-08-03T23:08:49.071Z,29.92
2022-08-03T23:11:18.601Z,29.85
2022-08-03T23:13:48.537Z,29.80
2022-08-03T23:16:28.934Z,29.77
2022-08-03T23:18:59.208Z,29.73
2022-08-03T23:22:00.119Z,29.67
2022-08-03T23:24:29.490Z,29.60
2022-08-03T23:26:59.685Z,29.59
2022-08-03T23:29:29.253Z,29.50
2022-08-03T23:31:59.414Z,29.41
2022-08-03T23:34:41.447Z,29.35
2022-08-03T23:37:10.895Z,29.30
2022-08-03T23:39:42.934Z,29.30
2022-08-03T23:42:12.369Z,29.31
2022-08-03T23:44:41.820Z,29.25
2022-08-03T23:47:11.256Z,29.22
2022-08-03T23:49:40.716Z,29.17
2022-08-03T23:52:12.085Z,29.14
2022-08-03T23:55:00.356Z,29.09
2022-08-03T23:57:32.352Z,29.06
